CheckWX is a tool to help pilots better visualize weather data.  It is not intended as a substitute for an official pre-flight weather briefing.

16:11:00 UTC

NFTF TAF
Fua'amotu International Airport
Nuku'alofa, Tonga
TAF NFTF 181106Z 1812/1912 15008KT 9999 SCT016

Mar-18@
12:00 UTC

Mar-18 @ 12:00 UTC

Mar-19@
12:00 UTC

Mar-19 @ 12:00 UTC

TAF NFTF 181106Z 1812/1912 15008KT 9999 SCT016
Wind
  • 150° at 8 KTS
Cloud Levels
  • Scattered at 1,600' AGL